This is the latest recevied weather packets stored in our database for station/object DG0PX-12. If no packets are shown the sender has not sent any weather packets the latest 10 day(s).
| Time | Temp. | Humidity | Pressure | Rain* | Wind** | Luminosity | Snow |
|---|---|---|---|---|---|---|---|
| 1777715091 | 21.11° C | 31% | 955 hPa | - | - | - | - |
| 1777714191 | 20° C | 33% | 955.1 hPa | - | - | - | - |
| 1777713291 | 20.56° C | 33% | 955.1 hPa | - | - | - | - |
| 1777712391 | 19.44° C | 37% | 955.2 hPa | - | - | - | - |
| 1777711490 | 18.89° C | 38% | 955.3 hPa | - | - | - | - |
| 1777710590 | 20° C | 35% | 955.2 hPa | - | - | - | - |
| 1777709690 | 20.56° C | 35% | 955.2 hPa | - | - | - | - |
| 1777708790 | 18.33° C | 34% | 955.4 hPa | - | - | - | - |
| 1777707890 | 18.89° C | 35% | 955.4 hPa | - | - | - | - |
| 1777706990 | 18.89° C | 35% | 955.4 hPa | - | - | - | - |
| 1777706090 | 16.11° C | 42% | 955.4 hPa | - | - | - | - |
| 1777705190 | 17.22° C | 39% | 955.5 hPa | - | - | - | - |
| 1777704290 | 16.11° C | 42% | 955.5 hPa | - | - | - | - |
| 1777703390 | 16.11° C | 43% | 955.4 hPa | - | - | - | - |
| 1777702490 | 14.44° C | 45% | 955.4 hPa | - | - | - | - |
| 1777701590 | 11.67° C | 52% | 955.3 hPa | - | - | - | - |
| 1777700689 | 11.11° C | 55% | 955.4 hPa | - | - | - | - |
| 1777699788 | 11.11° C | 53% | 955.5 hPa | - | - | - | - |
| 1777698887 | 8.33° C | 62% | 955.5 hPa | - | - | - | - |
| 1777697987 | 8.33° C | 61% | 955.5 hPa | - | - | - | - |
| 1777697088 | 6.67° C | 69% | 955.4 hPa | - | - | - | - |
| 1777696187 | 5.56° C | 72% | 955.3 hPa | - | - | - | - |
| 1777695287 | 5° C | 79% | 955.5 hPa | - | - | - | - |
| 1777694387 | 5.56° C | 73% | 955.4 hPa | - | - | - | - |
| 1777693487 | 5° C | 77% | 955.4 hPa | - | - | - | - |
* Rain since midnight (hover to see other rain measurements)
** Current wind speed in m/s (hover to see current wind gust speed)